createdAt,value
2022-09-20T00:00:41.846Z,101262.28
2022-09-20T00:03:09.878Z,101264.72
2022-09-20T00:05:36.785Z,101267.16
2022-09-20T00:08:03.512Z,101261.59
2022-09-20T00:10:29.910Z,101269.63
2022-09-20T00:12:56.370Z,101265.34
2022-09-20T00:15:22.860Z,101271.44
2022-09-20T00:17:49.195Z,101266.22
2022-09-20T00:20:17.065Z,101270.91
2022-09-20T00:22:43.395Z,101263.41
2022-09-20T00:25:09.725Z,101268.59
2022-09-20T00:27:36.038Z,101273.00
2022-09-20T00:30:02.390Z,101265.81
2022-09-20T00:32:28.743Z,101265.75
2022-09-20T00:34:55.073Z,101262.09
2022-09-20T00:37:22.693Z,101274.69
2022-09-20T00:39:49.034Z,101273.31
2022-09-20T00:42:15.825Z,101272.66
2022-09-20T00:44:44.527Z,101276.06
2022-09-20T00:47:14.089Z,101277.69
2022-09-20T00:49:40.612Z,101281.88
2022-09-20T00:52:07.225Z,101279.41
2022-09-20T00:54:35.977Z,101278.47
2022-09-20T00:57:02.363Z,101279.72
2022-09-20T00:59:30.914Z,101284.03
2022-09-20T01:01:59.771Z,101275.34
2022-09-20T01:04:27.977Z,101273.81
2022-09-20T01:06:56.969Z,101273.91
2022-09-20T01:09:23.334Z,101281.00
2022-09-20T01:11:52.015Z,101280.03
2022-09-20T01:14:18.905Z,101280.88
2022-09-20T01:16:45.783Z,101281.09
2022-09-20T01:19:16.025Z,101275.53
2022-09-20T01:21:42.441Z,101274.09
2022-09-20T01:24:15.081Z,101283.41
2022-09-20T01:26:57.920Z,101281.72
2022-09-20T01:29:35.092Z,101286.38
2022-09-20T01:32:02.974Z,101280.38
2022-09-20T01:34:31.785Z,101279.69
2022-09-20T01:37:02.145Z,101273.56
2022-09-20T01:39:33.950Z,101280.53
2022-09-20T01:42:03.322Z,101286.59
2022-09-20T01:44:35.761Z,101285.94
2022-09-20T01:47:05.631Z,101291.66
2022-09-20T01:49:41.184Z,101280.94
2022-09-20T01:52:27.587Z,101274.41
2022-09-20T01:55:08.858Z,101281.13
2022-09-20T01:57:55.769Z,101284.97
2022-09-20T02:00:26.430Z,101282.00
2022-09-20T02:03:04.802Z,101278.25
2022-09-20T02:05:42.234Z,101287.25
2022-09-20T02:08:14.015Z,101277.59
2022-09-20T02:10:47.347Z,101274.34
2022-09-20T02:13:19.487Z,101270.09
2022-09-20T02:15:59.738Z,101270.09
2022-09-20T02:18:37.780Z,101264.16
2022-09-20T02:21:08.843Z,101265.97
2022-09-20T02:23:40.404Z,101260.22
2022-09-20T02:26:14.856Z,101273.31
2022-09-20T02:28:51.658Z,101267.75
2022-09-20T02:31:23.355Z,101266.78
2022-09-20T02:34:02.888Z,101259.53
2022-09-20T02:36:36.039Z,101270.22
2022-09-20T02:39:07.611Z,101267.63
2022-09-20T02:41:48.801Z,101271.19
2022-09-20T02:44:18.443Z,101270.34
2022-09-20T02:46:50.626Z,101263.31
2022-09-20T02:49:22.202Z,101275.81
2022-09-20T02:51:52.167Z,101269.22
2022-09-20T02:54:22.280Z,101271.25
2022-09-20T02:56:54.840Z,101271.13
2022-09-20T02:59:26.982Z,101275.16
2022-09-20T03:02:00.643Z,101269.53
2022-09-20T03:04:35.675Z,101268.56
2022-09-20T03:07:06.027Z,101269.47
2022-09-20T03:09:35.300Z,101270.41
2022-09-20T03:12:07.871Z,101261.91
2022-09-20T03:14:36.863Z,101257.69
2022-09-20T03:17:11.544Z,101261.44
2022-09-20T03:19:48.315Z,101260.00
2022-09-20T03:22:19.994Z,101259.03
2022-09-20T03:24:54.768Z,101257.31
2022-09-20T03:27:25.799Z,101261.81
2022-09-20T03:30:02.141Z,101263.34
2022-09-20T03:32:36.170Z,101257.03
2022-09-20T03:35:06.537Z,101267.84
2022-09-20T03:37:41.724Z,101267.84
2022-09-20T03:40:23.418Z,101266.78
2022-09-20T03:42:52.107Z,101269.75
2022-09-20T03:45:28.674Z,101271.56
2022-09-20T03:48:03.261Z,101271.75
2022-09-20T03:50:35.695Z,101273.38
2022-09-20T03:53:13.574Z,101267.19
2022-09-20T03:55:49.984Z,101269.66
2022-09-20T03:58:23.281Z,101266.78
2022-09-20T04:00:58.504Z,101261.91
2022-09-20T04:03:34.454Z,101261.72
2022-09-20T04:06:09.464Z,101260.56
2022-09-20T04:08:44.112Z,101256.97
2022-09-20T04:11:16.433Z,101258.03
2022-09-20T04:13:46.145Z,101254.03
2022-09-20T04:16:22.154Z,101252.69
2022-09-20T04:18:53.380Z,101247.81
2022-09-20T04:21:23.539Z,101252.09
2022-09-20T04:23:52.198Z,101244.38
2022-09-20T04:26:22.052Z,101246.56
2022-09-20T04:28:51.847Z,101245.50
2022-09-20T04:31:25.601Z,101244.31
2022-09-20T04:33:54.446Z,101234.47
2022-09-20T04:36:31.199Z,101231.19
2022-09-20T04:39:02.429Z,101216.59
2022-09-20T04:41:40.608Z,101212.09
2022-09-20T04:44:20.463Z,101215.81
2022-09-20T04:47:01.633Z,101220.22
2022-09-20T04:49:42.825Z,101223.72
2022-09-20T04:52:23.054Z,101222.81
2022-09-20T04:55:04.006Z,101240.16
2022-09-20T04:57:46.822Z,101241.78
2022-09-20T05:00:15.970Z,101253.53
2022-09-20T05:02:54.022Z,101264.13
2022-09-20T05:05:35.575Z,101269.09
2022-09-20T05:08:16.743Z,101270.13
2022-09-20T05:10:51.275Z,101280.56
2022-09-20T05:13:26.311Z,101273.38
2022-09-20T05:15:57.587Z,101274.31
2022-09-20T05:18:36.221Z,101283.31
2022-09-20T05:21:10.322Z,101280.72
2022-09-20T05:23:51.512Z,101284.31
2022-09-20T05:26:26.566Z,101279.47
2022-09-20T05:28:56.142Z,101281.91
2022-09-20T05:31:26.769Z,101285.63
2022-09-20T05:33:57.410Z,101287.31
2022-09-20T05:36:32.313Z,101281.47
2022-09-20T05:39:07.355Z,101280.09
2022-09-20T05:41:40.303Z,101275.78
2022-09-20T05:44:11.664Z,101270.25
2022-09-20T05:46:45.098Z,101273.97
2022-09-20T05:49:16.286Z,101272.91
2022-09-20T05:51:52.671Z,101278.75
2022-09-20T05:54:33.583Z,101276.81
2022-09-20T05:57:07.773Z,101275.97
2022-09-20T05:59:41.601Z,101273.72
2022-09-20T06:02:14.285Z,101284.78
2022-09-20T06:04:44.618Z,101280.47
2022-09-20T06:07:21.339Z,101281.91
2022-09-20T06:09:58.154Z,101280.75
2022-09-20T06:12:35.516Z,101284.41
2022-09-20T06:15:11.383Z,101283.44
2022-09-20T06:17:42.326Z,101284.78
2022-09-20T06:20:15.904Z,101282.16
2022-09-20T06:22:44.138Z,101283.75
2022-09-20T06:25:15.289Z,101285.44
2022-09-20T06:27:44.313Z,101283.59
2022-09-20T06:30:15.388Z,101291.25
2022-09-20T06:32:52.677Z,101288.88
2022-09-20T06:35:19.675Z,101294.69
2022-09-20T06:37:48.787Z,101302.44
2022-09-20T06:40:21.579Z,101301.59
2022-09-20T06:42:49.275Z,101299.78
2022-09-20T06:45:15.609Z,101303.50
2022-09-20T06:47:42.081Z,101309.63
2022-09-20T06:50:14.420Z,101304.03
2022-09-20T06:52:41.871Z,101312.72
2022-09-20T06:55:13.924Z,101293.06
2022-09-20T06:57:40.265Z,101294.47
2022-09-20T07:00:08.660Z,101293.94
2022-09-20T07:02:35.084Z,101296.00
2022-09-20T07:05:01.553Z,101297.34
2022-09-20T07:07:27.961Z,101296.50
2022-09-20T07:09:54.373Z,101290.94
2022-09-20T07:12:20.727Z,101295.78
2022-09-20T07:14:47.057Z,101297.53
2022-09-20T07:17:14.727Z,101296.75
2022-09-20T07:19:41.118Z,101297.22
2022-09-20T07:22:07.480Z,101306.41
2022-09-20T07:24:33.831Z,101302.69
2022-09-20T07:27:01.083Z,101307.63
2022-09-20T07:29:28.016Z,101306.69
2022-09-20T07:31:55.517Z,101305.41
2022-09-20T07:34:23.213Z,101303.41
2022-09-20T07:36:50.287Z,101293.34
2022-09-20T07:39:16.733Z,101301.84
2022-09-20T07:41:43.461Z,101302.91
2022-09-20T07:44:13.254Z,101308.16
2022-09-20T07:46:39.756Z,101309.03
2022-09-20T07:49:06.364Z,101310.00
2022-09-20T07:51:33.985Z,101308.16
2022-09-20T07:54:00.416Z,101316.19
2022-09-20T07:56:26.825Z,101316.75
2022-09-20T07:58:53.285Z,101307.16
2022-09-20T08:01:19.951Z,101316.81
2022-09-20T08:03:46.339Z,101308.41
2022-09-20T08:06:13.084Z,101330.47
2022-09-20T08:08:40.830Z,101323.84
2022-09-20T08:11:08.808Z,101322.66
2022-09-20T08:16:23.243Z,101323.25
2022-09-20T08:18:50.792Z,101324.22
2022-09-20T08:21:17.835Z,101328.19
2022-09-20T08:23:46.312Z,101323.31
2022-09-20T08:26:13.984Z,101332.03
2022-09-20T08:28:40.868Z,101327.53
2022-09-20T08:31:08.585Z,101334.88
2022-09-20T08:33:35.611Z,101335.94
2022-09-20T08:36:02.268Z,101335.06
2022-09-20T08:41:19.765Z,101327.75
2022-09-20T08:43:50.017Z,101335.38
2022-09-20T08:46:23.261Z,101337.22
2022-09-20T08:48:50.103Z,101343.56
2022-09-20T08:51:22.720Z,101347.09
2022-09-20T08:53:50.700Z,101353.22
2022-09-20T08:56:19.129Z,101349.69
2022-09-20T08:58:45.635Z,101362.38
2022-09-20T09:01:14.153Z,101355.84
2022-09-20T09:03:40.532Z,101355.66
2022-09-20T09:06:14.190Z,101355.34
2022-09-20T09:08:43.327Z,101356.84
2022-09-20T09:11:13.413Z,101355.84
2022-09-20T09:13:44.581Z,101359.38
2022-09-20T09:16:12.729Z,101362.03
2022-09-20T09:18:40.426Z,101357.47
2022-09-20T09:21:07.639Z,101352.97
2022-09-20T09:23:38.887Z,101358.97
2022-09-20T09:26:05.354Z,101365.19
2022-09-20T09:28:31.844Z,101358.66
2022-09-20T09:31:11.919Z,101358.19
2022-09-20T09:33:42.830Z,101371.47
2022-09-20T09:36:13.767Z,101366.34
2022-09-20T09:38:41.349Z,101361.19
2022-09-20T09:41:20.216Z,101370.56
2022-09-20T09:43:57.468Z,101368.66
2022-09-20T09:46:25.256Z,101368.25
2022-09-20T09:49:03.909Z,101377.84
2022-09-20T09:51:30.584Z,101372.47
2022-09-20T09:53:56.955Z,101377.59
2022-09-20T09:56:30.494Z,101379.50
2022-09-20T09:59:06.587Z,101380.03
2022-09-20T10:01:38.944Z,101372.78
2022-09-20T10:04:11.849Z,101385.19
2022-09-20T10:06:43.661Z,101375.25
2022-09-20T10:09:19.976Z,101374.28
2022-09-20T10:11:53.832Z,101371.72
2022-09-20T10:14:25.077Z,101382.22
2022-09-20T10:17:01.177Z,101378.59
2022-09-20T10:19:41.117Z,101371.50
2022-09-20T10:22:11.037Z,101357.34
2022-09-20T10:24:43.481Z,101362.50
2022-09-20T10:27:17.184Z,101360.56
2022-09-20T10:29:52.134Z,101370.63
2022-09-20T10:32:27.568Z,101369.53
2022-09-20T10:34:59.355Z,101369.88
2022-09-20T10:37:28.899Z,101375.44
2022-09-20T10:40:03.014Z,101365.91
2022-09-20T10:42:32.891Z,101361.72
2022-09-20T10:45:04.391Z,101360.81
2022-09-20T10:47:34.150Z,101359.13
2022-09-20T10:50:03.669Z,101359.03
2022-09-20T10:52:44.198Z,101349.19
2022-09-20T10:55:19.213Z,101354.41
2022-09-20T10:57:55.815Z,101349.91
2022-09-20T11:00:23.230Z,101340.16
2022-09-20T11:02:57.372Z,101343.28
2022-09-20T11:05:29.720Z,101349.66
2022-09-20T11:08:02.017Z,101349.34
2022-09-20T11:10:31.205Z,101333.47
2022-09-20T11:13:00.440Z,101329.94
2022-09-20T11:15:30.350Z,101314.94
2022-09-20T11:18:03.860Z,101321.91
2022-09-20T11:20:32.377Z,101322.56
2022-09-20T11:23:02.525Z,101319.75
2022-09-20T11:25:33.236Z,101320.09
2022-09-20T11:28:02.599Z,101313.44
2022-09-20T11:30:30.148Z,101322.88
2022-09-20T11:33:00.449Z,101326.75
2022-09-20T11:35:33.200Z,101324.72
2022-09-20T11:38:04.373Z,101327.28
2022-09-20T11:40:32.753Z,101319.88
2022-09-20T11:43:00.875Z,101322.69
2022-09-20T11:45:28.868Z,101317.31
2022-09-20T11:47:58.388Z,101322.56
2022-09-20T11:50:39.241Z,101325.44
2022-09-20T11:53:10.699Z,101322.69
2022-09-20T11:55:42.385Z,101324.59
2022-09-20T11:58:10.737Z,101320.72
2022-09-20T12:00:38.588Z,101329.97
2022-09-20T12:03:07.528Z,101327.94
2022-09-20T12:05:35.985Z,101332.53
2022-09-20T12:08:05.470Z,101319.25
2022-09-20T12:10:33.166Z,101321.94
2022-09-20T12:13:00.913Z,101316.66
2022-09-20T12:15:29.684Z,101323.13
2022-09-20T12:18:09.175Z,101321.16
2022-09-20T12:20:50.826Z,101311.31
2022-09-20T12:23:32.017Z,101309.50
2022-09-20T12:26:02.113Z,101308.41
2022-09-20T12:28:33.971Z,101305.75
2022-09-20T12:31:15.219Z,101300.44
2022-09-20T12:33:55.390Z,101299.13
2022-09-20T12:36:21.755Z,101299.75
2022-09-20T12:38:51.286Z,101296.28
2022-09-20T12:41:27.909Z,101291.38
2022-09-20T12:43:57.492Z,101293.63
2022-09-20T12:46:26.664Z,101289.66
2022-09-20T12:49:08.001Z,101281.81
2022-09-20T12:51:34.355Z,101287.50
2022-09-20T12:54:02.299Z,101280.56
2022-09-20T12:56:30.108Z,101276.13
2022-09-20T12:58:57.121Z,101279.78
2022-09-20T13:01:29.789Z,101276.69
2022-09-20T13:04:11.000Z,101273.25
2022-09-20T13:06:37.417Z,101274.34
2022-09-20T13:09:05.723Z,101263.69
2022-09-20T13:11:37.999Z,101268.22
2022-09-20T13:14:06.770Z,101267.44
2022-09-20T13:16:39.779Z,101275.19
2022-09-20T13:19:07.610Z,101268.63
2022-09-20T13:21:36.940Z,101271.13
2022-09-20T13:24:04.253Z,101268.22
2022-09-20T13:26:33.841Z,101258.66
2022-09-20T13:29:02.387Z,101265.38
2022-09-20T13:31:30.433Z,101254.09
2022-09-20T13:34:11.667Z,101251.19
2022-09-20T13:36:38.181Z,101249.13
2022-09-20T13:39:06.134Z,101259.03
2022-09-20T13:41:32.661Z,101251.19
2022-09-20T13:44:00.037Z,101241.78
2022-09-20T13:46:30.519Z,101237.63
2022-09-20T13:48:59.245Z,101237.84
2022-09-20T13:51:26.490Z,101235.81
2022-09-20T13:53:53.321Z,101243.97
2022-09-20T13:56:21.488Z,101241.38
2022-09-20T13:58:48.681Z,101239.88
2022-09-20T14:01:29.928Z,101244.06
2022-09-20T14:04:02.625Z,101237.50
2022-09-20T14:06:29.155Z,101238.13
2022-09-20T14:08:56.800Z,101234.16
2022-09-20T14:11:24.980Z,101241.03
2022-09-20T14:13:52.032Z,101236.84
2022-09-20T14:16:18.854Z,101242.44
2022-09-20T14:18:46.285Z,101237.19
2022-09-20T14:21:17.455Z,101226.91
2022-09-20T14:23:49.857Z,101228.72
2022-09-20T14:26:24.738Z,101225.28
2022-09-20T14:28:51.511Z,101225.84
2022-09-20T14:31:20.853Z,101228.06
2022-09-20T14:33:54.264Z,101227.16
2022-09-20T14:36:24.914Z,101225.00
2022-09-20T14:38:53.235Z,101220.47
2022-09-20T14:41:27.668Z,101225.00
2022-09-20T14:43:54.667Z,101220.72
2022-09-20T14:46:28.548Z,101219.00
2022-09-20T14:48:55.021Z,101216.31
2022-09-20T14:51:23.583Z,101220.81
2022-09-20T14:53:51.017Z,101225.13
2022-09-20T14:56:25.587Z,101220.72
2022-09-20T14:59:04.389Z,101222.44
2022-09-20T15:01:31.427Z,101226.09
2022-09-20T15:03:58.199Z,101230.59
2022-09-20T15:06:25.937Z,101221.69
2022-09-20T15:08:52.342Z,101226.50
2022-09-20T15:11:18.925Z,101224.34
2022-09-20T15:13:47.214Z,101225.47
2022-09-20T15:16:21.067Z,101220.19
2022-09-20T15:18:47.581Z,101227.50
2022-09-20T15:21:13.890Z,101227.59
2022-09-20T15:23:41.500Z,101223.31
2022-09-20T15:26:07.962Z,101230.41
2022-09-20T15:28:34.767Z,101221.59
2022-09-20T15:31:01.109Z,101227.81
2022-09-20T15:33:29.394Z,101220.75
2022-09-20T15:35:55.768Z,101222.69
2022-09-20T15:38:22.188Z,101230.72
2022-09-20T15:40:50.054Z,101232.69
2022-09-20T15:43:18.073Z,101229.16
2022-09-20T15:45:47.863Z,101226.69
2022-09-20T15:48:14.418Z,101223.03
2022-09-20T15:50:40.868Z,101226.69
2022-09-20T15:53:07.328Z,101224.00
2022-09-20T15:55:36.009Z,101231.19
2022-09-20T15:58:03.639Z,101231.28
2022-09-20T16:00:30.132Z,101223.25
2022-09-20T16:02:56.432Z,101218.84
2022-09-20T16:05:22.884Z,101221.53
2022-09-20T16:07:49.216Z,101219.84
2022-09-20T16:10:15.826Z,101214.56
2022-09-20T16:12:42.137Z,101223.47
2022-09-20T16:15:10.405Z,101212.84
2022-09-20T16:17:36.860Z,101213.72
2022-09-20T16:20:03.233Z,101218.22
2022-09-20T16:22:29.725Z,101221.75
2022-09-20T16:24:56.355Z,101217.38
2022-09-20T16:27:22.684Z,101221.00
2022-09-20T16:29:49.021Z,101221.00
2022-09-20T16:32:16.779Z,101221.97
2022-09-20T16:34:43.194Z,101227.34
2022-09-20T16:37:11.137Z,101225.63
2022-09-20T16:39:37.823Z,101234.53
2022-09-20T16:42:05.224Z,101226.59
2022-09-20T16:44:31.908Z,101230.16
2022-09-20T16:46:58.250Z,101230.16
2022-09-20T16:49:26.022Z,101233.69
2022-09-20T16:51:52.594Z,101232.59
2022-09-20T16:54:19.104Z,101239.69
2022-09-20T16:56:46.790Z,101246.88
2022-09-20T16:59:13.735Z,101238.81
2022-09-20T17:01:40.437Z,101237.84
2022-09-20T17:04:07.109Z,101233.25
2022-09-20T17:06:35.785Z,101235.81
2022-09-20T17:09:02.600Z,101237.97
2022-09-20T17:11:29.819Z,101243.56
2022-09-20T17:13:56.582Z,101248.06
2022-09-20T17:16:23.805Z,101245.38
2022-09-20T17:18:51.665Z,101247.31
2022-09-20T17:21:18.128Z,101250.13
2022-09-20T17:23:50.750Z,101251.06
2022-09-20T17:26:18.579Z,101256.41
2022-09-20T17:28:46.011Z,101252.88
2022-09-20T17:31:13.456Z,101254.72
2022-09-20T17:33:40.052Z,101254.84
2022-09-20T17:36:07.114Z,101255.78
2022-09-20T17:38:34.104Z,101256.63
2022-09-20T17:41:02.792Z,101252.16
2022-09-20T17:43:29.650Z,101255.78
2022-09-20T17:45:56.004Z,101254.06
2022-09-20T17:48:22.412Z,101254.06
2022-09-20T17:50:54.304Z,101255.06
2022-09-20T17:53:20.767Z,101254.16
2022-09-20T17:55:52.377Z,101259.63
2022-09-20T17:58:20.019Z,101263.28
2022-09-20T18:00:46.359Z,101258.75
2022-09-20T18:03:12.701Z,101268.63
2022-09-20T18:05:39.043Z,101264.13
2022-09-20T18:08:05.454Z,101264.25
2022-09-20T18:10:31.846Z,101265.19
2022-09-20T18:12:58.262Z,101267.88
2022-09-20T18:15:25.955Z,101261.78
2022-09-20T18:17:54.507Z,101262.63
2022-09-20T18:20:20.999Z,101258.13
2022-09-20T18:22:47.620Z,101257.28
2022-09-20T18:25:14.131Z,101260.03
2022-09-20T18:27:40.474Z,101253.84
2022-09-20T18:30:07.413Z,101263.69
2022-09-20T18:32:35.037Z,101255.66
2022-09-20T18:35:01.431Z,101260.16
2022-09-20T18:37:27.782Z,101268.22
2022-09-20T18:39:54.223Z,101273.56
2022-09-20T18:42:20.566Z,101274.53
2022-09-20T18:44:46.936Z,101272.72
2022-09-20T18:47:13.288Z,101277.22
2022-09-20T18:49:40.888Z,101280.00
2022-09-20T18:52:07.221Z,101274.63
2022-09-20T18:54:33.728Z,101277.31
2022-09-20T18:57:00.617Z,101272.06
2022-09-20T18:59:27.606Z,101274.75
2022-09-20T19:02:03.918Z,101274.00
2022-09-20T19:04:47.176Z,101273.03
2022-09-20T19:07:16.539Z,101280.22
2022-09-20T19:09:45.759Z,101278.50
2022-09-20T19:12:16.271Z,101280.22
2022-09-20T19:14:49.917Z,101276.78
2022-09-20T19:17:17.703Z,101283.88
2022-09-20T19:19:48.486Z,101287.53
2022-09-20T19:22:21.226Z,101290.19
2022-09-20T19:24:57.136Z,101288.47
2022-09-20T19:27:24.071Z,101294.72
2022-09-20T19:29:50.582Z,101301.88
2022-09-20T19:32:17.569Z,101297.47
2022-09-20T19:34:44.514Z,101308.19
2022-09-20T19:37:20.058Z,101303.81
2022-09-20T19:39:54.109Z,101315.41
2022-09-20T19:42:27.383Z,101311.00
2022-09-20T19:44:59.250Z,101313.69
2022-09-20T19:47:30.466Z,101319.03
2022-09-20T19:50:03.233Z,101318.19
2022-09-20T19:52:31.105Z,101323.66
2022-09-20T19:54:57.597Z,101325.47
2022-09-20T19:57:28.301Z,101324.50
2022-09-20T19:59:55.077Z,101325.47
2022-09-20T20:02:21.610Z,101327.28
2022-09-20T20:04:48.166Z,101320.22
2022-09-20T20:07:20.300Z,101325.59
2022-09-20T20:09:52.011Z,101330.06
2022-09-20T20:12:25.720Z,101330.06
2022-09-20T20:14:56.351Z,101326.53
2022-09-20T20:17:30.529Z,101323.97
2022-09-20T20:20:02.740Z,101330.19
2022-09-20T20:22:36.638Z,101326.53
2022-09-20T20:25:04.631Z,101323.00
2022-09-20T20:27:30.956Z,101332.00
2022-09-20T20:29:57.394Z,101331.16
2022-09-20T20:32:23.858Z,101329.41
2022-09-20T20:34:50.184Z,101333.06
2022-09-20T20:37:16.508Z,101340.13
2022-09-20T20:39:42.861Z,101340.25
2022-09-20T20:42:10.571Z,101334.91
2022-09-20T20:44:36.896Z,101340.25
2022-09-20T20:47:03.895Z,101342.94
2022-09-20T20:49:30.287Z,101347.44
2022-09-20T20:51:56.619Z,101343.06
2022-09-20T20:54:22.970Z,101342.94
2022-09-20T20:56:49.302Z,101347.53
2022-09-20T20:59:16.916Z,101351.19
2022-09-20T21:01:43.531Z,101353.88
2022-09-20T21:04:09.997Z,101345.81
2022-09-20T21:06:36.866Z,101349.47
2022-09-20T21:09:04.434Z,101347.78
2022-09-20T21:11:31.618Z,101345.09
2022-09-20T21:13:59.120Z,101350.97
2022-09-20T21:16:27.854Z,101353.13
2022-09-20T21:18:54.428Z,101356.75
2022-09-20T21:21:21.788Z,101350.53
2022-09-20T21:23:49.066Z,101351.38
2022-09-20T21:26:15.947Z,101356.00
2022-09-20T21:28:43.687Z,101356.88
2022-09-20T21:31:10.673Z,101358.69
2022-09-20T21:33:39.168Z,101360.50
2022-09-20T21:36:05.798Z,101359.53
2022-09-20T21:38:32.153Z,101356.00
2022-09-20T21:41:06.686Z,101357.94
2022-09-20T21:43:33.149Z,101356.97
2022-09-20T21:45:59.608Z,101363.16
2022-09-20T21:48:26.511Z,101359.75
2022-09-20T21:50:59.480Z,101365.13
2022-09-20T21:53:25.780Z,101357.94
2022-09-20T21:55:55.333Z,101364.25
2022-09-20T21:58:21.675Z,101358.91
2022-09-20T22:00:55.376Z,101362.63
2022-09-20T22:03:21.709Z,101354.59
2022-09-20T22:05:48.098Z,101358.25
2022-09-20T22:08:15.751Z,101359.09
2022-09-20T22:10:42.044Z,101361.88
2022-09-20T22:13:08.355Z,101359.09
2022-09-20T22:15:34.745Z,101359.19
2022-09-20T22:18:01.088Z,101363.69
2022-09-20T22:20:27.401Z,101361.88
2022-09-20T22:22:53.824Z,101360.16
2022-09-20T22:25:21.508Z,101360.16
2022-09-20T22:27:48.364Z,101361.00
2022-09-20T22:30:14.708Z,101357.47
2022-09-20T22:32:42.740Z,101358.25
2022-09-20T22:35:09.204Z,101357.47
2022-09-20T22:37:35.707Z,101361.00
2022-09-20T22:40:02.229Z,101362.97
2022-09-20T22:42:30.021Z,101362.97
2022-09-20T22:44:56.542Z,101364.78
2022-09-20T22:47:23.005Z,101366.56
2022-09-20T22:49:49.328Z,101366.50
2022-09-20T22:52:15.685Z,101364.88
2022-09-20T22:54:42.129Z,101360.38
2022-09-20T22:57:08.450Z,101356.94
2022-09-20T22:59:36.151Z,101361.34
2022-09-20T23:02:02.621Z,101359.50
2022-09-20T23:04:28.924Z,101361.34
2022-09-20T23:06:55.527Z,101360.47
2022-09-20T23:09:22.935Z,101367.53
2022-09-20T23:11:49.308Z,101365.91
2022-09-20T23:14:16.971Z,101362.31
2022-09-20T23:16:45.198Z,101362.38
2022-09-20T23:19:12.336Z,101366.03
2022-09-20T23:21:39.458Z,101357.22
2022-09-20T23:24:07.427Z,101362.38
2022-09-20T23:26:34.713Z,101365.06
2022-09-20T23:29:02.027Z,101363.34
2022-09-20T23:31:29.208Z,101374.06
2022-09-20T23:33:57.720Z,101375.78
2022-09-20T23:36:24.701Z,101360.78
2022-09-20T23:38:51.380Z,101362.59
2022-09-20T23:41:18.654Z,101371.50
2022-09-20T23:43:45.265Z,101372.44
2022-09-20T23:46:12.305Z,101370.75
2022-09-20T23:48:38.647Z,101368.91
2022-09-20T23:51:06.508Z,101370.84
2022-09-20T23:53:32.899Z,101368.91
2022-09-20T23:55:59.300Z,101361.00
2022-09-20T23:58:25.754Z,101357.47
